sensor_id;sensor_type;location;lat;lon;timestamp;temperature;humidity
65536;DHT22;52145;49.342;9.116;2022-08-11T00:01:23;18.90;68.40
65536;DHT22;52145;49.342;9.116;2022-08-11T00:03:55;18.90;68.70
65536;DHT22;52145;49.342;9.116;2022-08-11T00:06:28;18.90;68.80
65536;DHT22;52145;49.342;9.116;2022-08-11T00:08:54;18.90;68.80
65536;DHT22;52145;49.342;9.116;2022-08-11T00:11:21;18.80;68.80
65536;DHT22;52145;49.342;9.116;2022-08-11T00:13:56;18.80;69.10
65536;DHT22;52145;49.342;9.116;2022-08-11T00:16:23;18.80;69.10
65536;DHT22;52145;49.342;9.116;2022-08-11T00:18:55;18.80;69.30
65536;DHT22;52145;49.342;9.116;2022-08-11T00:21:23;18.70;69.40
65536;DHT22;52145;49.342;9.116;2022-08-11T00:24:00;18.50;69.50
65536;DHT22;52145;49.342;9.116;2022-08-11T00:26:27;18.60;69.70
65536;DHT22;52145;49.342;9.116;2022-08-11T00:28:55;18.70;69.30
65536;DHT22;52145;49.342;9.116;2022-08-11T00:31:30;18.60;69.50
65536;DHT22;52145;49.342;9.116;2022-08-11T00:33:58;18.60;69.80
65536;DHT22;52145;49.342;9.116;2022-08-11T00:36:27;18.50;70.10
65536;DHT22;52145;49.342;9.116;2022-08-11T00:39:01;18.50;70.10
65536;DHT22;52145;49.342;9.116;2022-08-11T00:41:30;18.50;70.30
65536;DHT22;52145;49.342;9.116;2022-08-11T00:44:21;18.50;70.20
65536;DHT22;52145;49.342;9.116;2022-08-11T01:01:08;18.20;71.50
65536;DHT22;52145;49.342;9.116;2022-08-11T01:09:48;18.00;72.40
65536;DHT22;52145;49.342;9.116;2022-08-11T01:21:13;17.70;72.90
65536;DHT22;52145;49.342;9.116;2022-08-11T01:46:34;17.60;73.60
65536;DHT22;52145;49.342;9.116;2022-08-11T01:49:38;17.60;73.50
65536;DHT22;52145;49.342;9.116;2022-08-11T01:52:19;17.70;73.60
65536;DHT22;52145;49.342;9.116;2022-08-11T01:57:38;17.50;74.20
65536;DHT22;52145;49.342;9.116;2022-08-11T02:00:07;17.50;74.40
65536;DHT22;52145;49.342;9.116;2022-08-11T02:13:48;17.20;76.70
65536;DHT22;52145;49.342;9.116;2022-08-11T02:18:54;17.20;75.90
65536;DHT22;52145;49.342;9.116;2022-08-11T02:25:09;17.20;75.80
65536;DHT22;52145;49.342;9.116;2022-08-11T02:27:49;17.20;77.70
65536;DHT22;52145;49.342;9.116;2022-08-11T02:30:23;17.20;78.50
65536;DHT22;52145;49.342;9.116;2022-08-11T02:35:54;17.00;77.60
65536;DHT22;52145;49.342;9.116;2022-08-11T02:41:22;16.90;77.40
65536;DHT22;52145;49.342;9.116;2022-08-11T02:49:50;16.90;77.30
65536;DHT22;52145;49.342;9.116;2022-08-11T02:55:02;16.80;77.70
65536;DHT22;52145;49.342;9.116;2022-08-11T02:57:58;16.70;77.60
65536;DHT22;52145;49.342;9.116;2022-08-11T03:00:29;16.70;78.50
65536;DHT22;52145;49.342;9.116;2022-08-11T03:03:32;16.70;77.90
65536;DHT22;52145;49.342;9.116;2022-08-11T03:06:10;16.70;77.90
65536;DHT22;52145;49.342;9.116;2022-08-11T03:08:52;16.80;77.80
65536;DHT22;52145;49.342;9.116;2022-08-11T03:14:19;16.70;79.10
65536;DHT22;52145;49.342;9.116;2022-08-11T03:17:27;16.70;78.50
65536;DHT22;52145;49.342;9.116;2022-08-11T03:23:08;16.60;78.80
65536;DHT22;52145;49.342;9.116;2022-08-11T03:31:27;16.50;78.80
65536;DHT22;52145;49.342;9.116;2022-08-11T03:34:08;16.50;79.20
65536;DHT22;52145;49.342;9.116;2022-08-11T03:42:14;16.40;79.20
65536;DHT22;52145;49.342;9.116;2022-08-11T03:45:19;16.50;80.30
65536;DHT22;52145;49.342;9.116;2022-08-11T03:48:24;16.40;81.00
65536;DHT22;52145;49.342;9.116;2022-08-11T03:51:06;16.40;80.90
65536;DHT22;52145;49.342;9.116;2022-08-11T04:17:35;16.00;81.30
65536;DHT22;52145;49.342;9.116;2022-08-11T04:23:10;16.10;81.40
65536;DHT22;52145;49.342;9.116;2022-08-11T04:26:07;16.20;82.50
65536;DHT22;52145;49.342;9.116;2022-08-11T04:31:55;16.20;81.40
65536;DHT22;52145;49.342;9.116;2022-08-11T04:37:19;16.10;82.10
65536;DHT22;52145;49.342;9.116;2022-08-11T04:57:50;16.40;83.50
65536;DHT22;52145;49.342;9.116;2022-08-11T05:00:59;16.40;84.20
65536;DHT22;52145;49.342;9.116;2022-08-11T05:09:53;16.40;83.70
65536;DHT22;52145;49.342;9.116;2022-08-11T05:12:54;16.40;84.60
65536;DHT22;52145;49.342;9.116;2022-08-11T05:15:35;16.50;84.90
65536;DHT22;52145;49.342;9.116;2022-08-11T05:18:26;16.50;84.30
65536;DHT22;52145;49.342;9.116;2022-08-11T05:21:12;16.70;84.80
65536;DHT22;52145;49.342;9.116;2022-08-11T05:24:05;16.80;83.80
65536;DHT22;52145;49.342;9.116;2022-08-11T05:26:50;16.90;82.10
65536;DHT22;52145;49.342;9.116;2022-08-11T05:32:39;17.30;80.10
65536;DHT22;52145;49.342;9.116;2022-08-11T05:35:36;17.60;79.20
65536;DHT22;52145;49.342;9.116;2022-08-11T05:38:24;17.80;78.80
65536;DHT22;52145;49.342;9.116;2022-08-11T05:41:13;18.00;77.70
65536;DHT22;52145;49.342;9.116;2022-08-11T05:43:59;18.20;76.80
65536;DHT22;52145;49.342;9.116;2022-08-11T05:46:44;18.40;76.30
65536;DHT22;52145;49.342;9.116;2022-08-11T05:49:31;18.60;75.50
65536;DHT22;52145;49.342;9.116;2022-08-11T05:52:17;18.80;75.50
65536;DHT22;52145;49.342;9.116;2022-08-11T05:55:04;19.00;74.10
65536;DHT22;52145;49.342;9.116;2022-08-11T05:58:03;19.20;73.80
65536;DHT22;52145;49.342;9.116;2022-08-11T06:00:30;19.40;73.50
65536;DHT22;52145;49.342;9.116;2022-08-11T06:03:00;19.50;72.60
65536;DHT22;52145;49.342;9.116;2022-08-11T06:05:36;19.70;72.50
65536;DHT22;52145;49.342;9.116;2022-08-11T06:08:03;19.90;71.70
65536;DHT22;52145;49.342;9.116;2022-08-11T06:10:38;20.10;71.30
65536;DHT22;52145;49.342;9.116;2022-08-11T06:13:06;20.30;71.10
65536;DHT22;52145;49.342;9.116;2022-08-11T06:15:33;20.40;70.70
65536;DHT22;52145;49.342;9.116;2022-08-11T06:18:09;20.50;69.80
65536;DHT22;52145;49.342;9.116;2022-08-11T06:20:52;20.70;69.80
65536;DHT22;52145;49.342;9.116;2022-08-11T06:23:20;20.70;70.00
65536;DHT22;52145;49.342;9.116;2022-08-11T06:25:50;20.80;70.10
65536;DHT22;52145;49.342;9.116;2022-08-11T06:28:17;20.90;69.70
65536;DHT22;52145;49.342;9.116;2022-08-11T06:30:46;21.10;70.00
65536;DHT22;52145;49.342;9.116;2022-08-11T06:33:20;21.20;69.20
65536;DHT22;52145;49.342;9.116;2022-08-11T06:36:02;21.40;68.90
65536;DHT22;52145;49.342;9.116;2022-08-11T06:41:26;21.60;68.60
65536;DHT22;52145;49.342;9.116;2022-08-11T06:44:15;21.70;68.00
65536;DHT22;52145;49.342;9.116;2022-08-11T06:46:48;22.00;67.80
65536;DHT22;52145;49.342;9.116;2022-08-11T06:49:16;22.10;67.10
65536;DHT22;52145;49.342;9.116;2022-08-11T06:52:04;22.00;66.60
65536;DHT22;52145;49.342;9.116;2022-08-11T06:54:33;22.20;66.70
65536;DHT22;52145;49.342;9.116;2022-08-11T06:56:59;22.40;66.30
65536;DHT22;52145;49.342;9.116;2022-08-11T06:59:44;22.50;66.20
65536;DHT22;52145;49.342;9.116;2022-08-11T07:02:36;22.60;66.10
65536;DHT22;52145;49.342;9.116;2022-08-11T07:05:09;22.70;65.70
65536;DHT22;52145;49.342;9.116;2022-08-11T07:13:45;23.20;64.80
65536;DHT22;52145;49.342;9.116;2022-08-11T07:16:30;23.10;64.90
65536;DHT22;52145;49.342;9.116;2022-08-11T07:19:02;23.20;65.00
65536;DHT22;52145;49.342;9.116;2022-08-11T07:21:48;23.40;64.40
65536;DHT22;52145;49.342;9.116;2022-08-11T07:24:41;23.40;64.30
65536;DHT22;52145;49.342;9.116;2022-08-11T07:28:03;23.50;64.20
65536;DHT22;52145;49.342;9.116;2022-08-11T07:30:41;23.70;63.80
65536;DHT22;52145;49.342;9.116;2022-08-11T07:33:08;23.80;64.00
65536;DHT22;52145;49.342;9.116;2022-08-11T07:35:49;23.90;63.40
65536;DHT22;52145;49.342;9.116;2022-08-11T07:38:33;23.90;63.50
65536;DHT22;52145;49.342;9.116;2022-08-11T07:41:13;23.90;63.00
65536;DHT22;52145;49.342;9.116;2022-08-11T07:43:41;24.00;63.70
65536;DHT22;52145;49.342;9.116;2022-08-11T07:46:07;24.20;62.80
65536;DHT22;52145;49.342;9.116;2022-08-11T07:48:54;24.30;62.80
65536;DHT22;52145;49.342;9.116;2022-08-11T07:51:40;24.30;62.30
65536;DHT22;52145;49.342;9.116;2022-08-11T07:54:26;24.50;62.30
65536;DHT22;52145;49.342;9.116;2022-08-11T07:56:52;24.60;61.90
65536;DHT22;52145;49.342;9.116;2022-08-11T07:59:18;24.80;61.70
65536;DHT22;52145;49.342;9.116;2022-08-11T08:02:03;24.70;61.60
65536;DHT22;52145;49.342;9.116;2022-08-11T08:04:49;24.90;61.50
65536;DHT22;52145;49.342;9.116;2022-08-11T08:07:33;25.00;61.10
65536;DHT22;52145;49.342;9.116;2022-08-11T08:10:20;25.10;61.30
65536;DHT22;52145;49.342;9.116;2022-08-11T08:13:05;25.10;60.60
65536;DHT22;52145;49.342;9.116;2022-08-11T08:15:51;25.10;60.50
65536;DHT22;52145;49.342;9.116;2022-08-11T08:18:36;25.10;60.50
65536;DHT22;52145;49.342;9.116;2022-08-11T08:21:04;25.20;60.50
65536;DHT22;52145;49.342;9.116;2022-08-11T08:23:44;25.30;60.90
65536;DHT22;52145;49.342;9.116;2022-08-11T08:26:13;25.70;60.70
65536;DHT22;52145;49.342;9.116;2022-08-11T08:29:02;25.90;59.80
65536;DHT22;52145;49.342;9.116;2022-08-11T08:31:48;26.10;59.50
65536;DHT22;52145;49.342;9.116;2022-08-11T08:34:15;26.20;59.50
65536;DHT22;52145;49.342;9.116;2022-08-11T08:36:46;26.30;59.10
65536;DHT22;52145;49.342;9.116;2022-08-11T08:39:12;26.30;59.20
65536;DHT22;52145;49.342;9.116;2022-08-11T08:41:39;26.40;59.00
65536;DHT22;52145;49.342;9.116;2022-08-11T08:44:11;26.50;58.60
65536;DHT22;52145;49.342;9.116;2022-08-11T08:46:42;26.60;58.40
65536;DHT22;52145;49.342;9.116;2022-08-11T08:49:09;26.70;58.50
65536;DHT22;52145;49.342;9.116;2022-08-11T08:51:39;26.90;58.00
65536;DHT22;52145;49.342;9.116;2022-08-11T08:54:10;26.90;57.80
65536;DHT22;52145;49.342;9.116;2022-08-11T08:56:39;26.90;57.60
65536;DHT22;52145;49.342;9.116;2022-08-11T08:59:05;27.00;57.40
65536;DHT22;52145;49.342;9.116;2022-08-11T09:01:42;27.20;57.20
65536;DHT22;52145;49.342;9.116;2022-08-11T09:04:08;27.30;57.50
65536;DHT22;52145;49.342;9.116;2022-08-11T09:06:37;27.50;57.00
65536;DHT22;52145;49.342;9.116;2022-08-11T09:09:08;27.70;57.20
65536;DHT22;52145;49.342;9.116;2022-08-11T09:11:37;27.80;56.20
65536;DHT22;52145;49.342;9.116;2022-08-11T09:14:16;27.60;56.50
65536;DHT22;52145;49.342;9.116;2022-08-11T09:16:43;27.70;55.90
65536;DHT22;52145;49.342;9.116;2022-08-11T09:19:09;27.70;55.80
65536;DHT22;52145;49.342;9.116;2022-08-11T09:21:41;27.70;55.40
65536;DHT22;52145;49.342;9.116;2022-08-11T09:24:07;27.80;55.80
65536;DHT22;52145;49.342;9.116;2022-08-11T09:26:52;28.00;55.80
65536;DHT22;52145;49.342;9.116;2022-08-11T09:29:28;28.20;54.30
65536;DHT22;52145;49.342;9.116;2022-08-11T09:31:55;28.40;54.50
65536;DHT22;52145;49.342;9.116;2022-08-11T09:34:22;28.60;54.70
65536;DHT22;52145;49.342;9.116;2022-08-11T09:36:49;28.80;54.00
65536;DHT22;52145;49.342;9.116;2022-08-11T09:39:36;29.10;54.80
65536;DHT22;52145;49.342;9.116;2022-08-11T09:42:21;29.30;53.60
65536;DHT22;52145;49.342;9.116;2022-08-11T09:44:48;29.10;52.10
65536;DHT22;52145;49.342;9.116;2022-08-11T09:47:27;28.80;51.90
65536;DHT22;52145;49.342;9.116;2022-08-11T09:50:02;28.80;52.50
65536;DHT22;52145;49.342;9.116;2022-08-11T09:52:39;28.80;51.50
65536;DHT22;52145;49.342;9.116;2022-08-11T09:55:06;28.90;51.70
65536;DHT22;52145;49.342;9.116;2022-08-11T09:57:43;29.20;52.20
65536;DHT22;52145;49.342;9.116;2022-08-11T10:00:37;29.40;52.20
65536;DHT22;52145;49.342;9.116;2022-08-11T10:03:09;29.50;51.90
65536;DHT22;52145;49.342;9.116;2022-08-11T10:05:37;29.80;51.20
65536;DHT22;52145;49.342;9.116;2022-08-11T10:08:22;29.80;50.00
65536;DHT22;52145;49.342;9.116;2022-08-11T10:10:50;29.60;50.80
65536;DHT22;52145;49.342;9.116;2022-08-11T10:13:19;29.40;50.80
65536;DHT22;52145;49.342;9.116;2022-08-11T10:15:47;29.50;51.50
65536;DHT22;52145;49.342;9.116;2022-08-11T10:18:17;29.90;51.50
65536;DHT22;52145;49.342;9.116;2022-08-11T10:21:08;30.30;50.40
65536;DHT22;52145;49.342;9.116;2022-08-11T10:23:36;30.50;50.00
65536;DHT22;52145;49.342;9.116;2022-08-11T10:26:22;30.70;48.80
65536;DHT22;52145;49.342;9.116;2022-08-11T10:29:08;30.90;48.70
65536;DHT22;52145;49.342;9.116;2022-08-11T10:31:57;31.20;48.40
65536;DHT22;52145;49.342;9.116;2022-08-11T10:34:47;31.30;48.30
65536;DHT22;52145;49.342;9.116;2022-08-11T10:37:15;31.40;47.70
65536;DHT22;52145;49.342;9.116;2022-08-11T10:39:41;31.30;46.60
65536;DHT22;52145;49.342;9.116;2022-08-11T10:42:08;31.30;46.90
65536;DHT22;52145;49.342;9.116;2022-08-11T10:44:55;31.20;46.80
65536;DHT22;52145;49.342;9.116;2022-08-11T10:47:21;31.50;47.10
65536;DHT22;52145;49.342;9.116;2022-08-11T10:50:09;31.90;46.30
65536;DHT22;52145;49.342;9.116;2022-08-11T10:52:56;32.00;45.80
65536;DHT22;52145;49.342;9.116;2022-08-11T10:55:43;32.50;46.20
65536;DHT22;52145;49.342;9.116;2022-08-11T10:58:27;33.10;45.60
65536;DHT22;52145;49.342;9.116;2022-08-11T11:01:22;32.90;45.50
65536;DHT22;52145;49.342;9.116;2022-08-11T11:03:55;32.90;45.40
65536;DHT22;52145;49.342;9.116;2022-08-11T11:09:32;33.60;45.10
65536;DHT22;52145;49.342;9.116;2022-08-11T11:12:05;34.20;45.00
65536;DHT22;52145;49.342;9.116;2022-08-11T11:14:52;34.30;44.00
65536;DHT22;52145;49.342;9.116;2022-08-11T11:17:42;34.00;44.50
65536;DHT22;52145;49.342;9.116;2022-08-11T11:20:34;34.70;44.20
65536;DHT22;52145;49.342;9.116;2022-08-11T11:23:05;35.00;44.50
65536;DHT22;52145;49.342;9.116;2022-08-11T11:31:26;36.30;42.90
65536;DHT22;52145;49.342;9.116;2022-08-11T11:37:00;37.50;42.40
65536;DHT22;52145;49.342;9.116;2022-08-11T11:39:27;37.30;42.00
65536;DHT22;52145;49.342;9.116;2022-08-11T11:41:58;37.00;41.90
65536;DHT22;52145;49.342;9.116;2022-08-11T11:44:26;37.00;42.20
65536;DHT22;52145;49.342;9.116;2022-08-11T11:46:52;37.40;42.00
65536;DHT22;52145;49.342;9.116;2022-08-11T11:49:22;37.70;40.90
65536;DHT22;52145;49.342;9.116;2022-08-11T11:51:49;37.60;41.30
65536;DHT22;52145;49.342;9.116;2022-08-11T11:54:30;37.70;41.00
65536;DHT22;52145;49.342;9.116;2022-08-11T11:56:57;37.30;41.70
65536;DHT22;52145;49.342;9.116;2022-08-11T11:59:44;37.80;40.90
65536;DHT22;52145;49.342;9.116;2022-08-11T12:02:28;39.10;40.90
65536;DHT22;52145;49.342;9.116;2022-08-11T12:04:54;39.90;40.60
65536;DHT22;52145;49.342;9.116;2022-08-11T12:07:22;39.00;40.50
65536;DHT22;52145;49.342;9.116;2022-08-11T12:10:07;38.60;40.70
65536;DHT22;52145;49.342;9.116;2022-08-11T12:12:33;38.80;40.70
65536;DHT22;52145;49.342;9.116;2022-08-11T12:15:17;39.60;40.30
65536;DHT22;52145;49.342;9.116;2022-08-11T12:17:44;39.30;40.20
65536;DHT22;52145;49.342;9.116;2022-08-11T12:20:10;39.60;40.00
65536;DHT22;52145;49.342;9.116;2022-08-11T12:22:39;39.90;39.80
65536;DHT22;52145;49.342;9.116;2022-08-11T12:25:24;40.30;39.30
65536;DHT22;52145;49.342;9.116;2022-08-11T12:28:08;40.50;39.70
65536;DHT22;52145;49.342;9.116;2022-08-11T12:30:34;40.90;39.70
65536;DHT22;52145;49.342;9.116;2022-08-11T12:33:00;39.60;39.20
65536;DHT22;52145;49.342;9.116;2022-08-11T12:35:27;40.10;39.50
65536;DHT22;52145;49.342;9.116;2022-08-11T12:37:53;39.80;39.90
65536;DHT22;52145;49.342;9.116;2022-08-11T12:40:24;40.40;39.30
65536;DHT22;52145;49.342;9.116;2022-08-11T12:43:19;40.20;39.30
65536;DHT22;52145;49.342;9.116;2022-08-11T12:46:08;41.10;39.20
65536;DHT22;52145;49.342;9.116;2022-08-11T12:48:36;41.60;39.20
65536;DHT22;52145;49.342;9.116;2022-08-11T12:51:24;40.90;38.40
65536;DHT22;52145;49.342;9.116;2022-08-11T12:57:08;40.00;38.70
65536;DHT22;52145;49.342;9.116;2022-08-11T12:59:54;39.80;38.80
65536;DHT22;52145;49.342;9.116;2022-08-11T13:02:39;39.50;39.10
65536;DHT22;52145;49.342;9.116;2022-08-11T13:05:24;39.90;39.00
65536;DHT22;52145;49.342;9.116;2022-08-11T13:07:51;39.20;38.60
65536;DHT22;52145;49.342;9.116;2022-08-11T13:10:18;39.50;39.10
65536;DHT22;52145;49.342;9.116;2022-08-11T13:13:06;41.00;39.30
65536;DHT22;52145;49.342;9.116;2022-08-11T13:15:32;42.20;38.30
65536;DHT22;52145;49.342;9.116;2022-08-11T13:18:01;42.10;37.90
65536;DHT22;52145;49.342;9.116;2022-08-11T13:20:27;42.20;38.00
65536;DHT22;52145;49.342;9.116;2022-08-11T13:22:55;42.50;37.90
65536;DHT22;52145;49.342;9.116;2022-08-11T13:25:26;43.10;37.50
65536;DHT22;52145;49.342;9.116;2022-08-11T13:27:55;42.50;37.40
65536;DHT22;52145;49.342;9.116;2022-08-11T13:30:24;42.10;37.70
65536;DHT22;52145;49.342;9.116;2022-08-11T13:33:10;42.30;37.30
65536;DHT22;52145;49.342;9.116;2022-08-11T13:35:36;41.60;38.00
65536;DHT22;52145;49.342;9.116;2022-08-11T13:38:03;41.40;37.80
65536;DHT22;52145;49.342;9.116;2022-08-11T13:40:31;41.40;38.20
65536;DHT22;52145;49.342;9.116;2022-08-11T13:42:57;41.40;38.20
65536;DHT22;52145;49.342;9.116;2022-08-11T13:45:24;42.10;38.10
65536;DHT22;52145;49.342;9.116;2022-08-11T13:47:54;42.20;37.80
65536;DHT22;52145;49.342;9.116;2022-08-11T13:50:20;42.90;37.60
65536;DHT22;52145;49.342;9.116;2022-08-11T13:52:48;43.10;37.40
65536;DHT22;52145;49.342;9.116;2022-08-11T13:55:15;43.70;37.10
65536;DHT22;52145;49.342;9.116;2022-08-11T13:57:52;44.00;37.60
65536;DHT22;52145;49.342;9.116;2022-08-11T14:00:19;44.40;37.00
65536;DHT22;52145;49.342;9.116;2022-08-11T14:02:47;43.90;36.90
65536;DHT22;52145;49.342;9.116;2022-08-11T14:05:19;42.80;37.50
65536;DHT22;52145;49.342;9.116;2022-08-11T14:07:51;42.10;37.90
65536;DHT22;52145;49.342;9.116;2022-08-11T14:10:20;42.70;37.90
65536;DHT22;52145;49.342;9.116;2022-08-11T14:12:52;43.60;37.60
65536;DHT22;52145;49.342;9.116;2022-08-11T14:15:42;43.80;37.80
65536;DHT22;52145;49.342;9.116;2022-08-11T14:18:24;43.90;37.10
65536;DHT22;52145;49.342;9.116;2022-08-11T14:20:55;43.80;36.80
65536;DHT22;52145;49.342;9.116;2022-08-11T14:23:45;42.60;37.40
65536;DHT22;52145;49.342;9.116;2022-08-11T14:26:14;41.40;38.10
65536;DHT22;52145;49.342;9.116;2022-08-11T14:29:00;42.30;37.90
65536;DHT22;52145;49.342;9.116;2022-08-11T14:31:28;42.30;37.80
65536;DHT22;52145;49.342;9.116;2022-08-11T14:33:56;42.50;37.80
65536;DHT22;52145;49.342;9.116;2022-08-11T14:36:25;43.30;37.50
65536;DHT22;52145;49.342;9.116;2022-08-11T14:38:52;42.80;37.00
65536;DHT22;52145;49.342;9.116;2022-08-11T14:41:19;42.60;37.20
65536;DHT22;52145;49.342;9.116;2022-08-11T14:44:05;42.80;37.20
65536;DHT22;52145;49.342;9.116;2022-08-11T14:46:49;42.40;38.00
65536;DHT22;52145;49.342;9.116;2022-08-11T14:49:33;42.80;37.60
65536;DHT22;52145;49.342;9.116;2022-08-11T14:52:05;42.50;37.40
65536;DHT22;52145;49.342;9.116;2022-08-11T14:54:31;42.40;37.20
65536;DHT22;52145;49.342;9.116;2022-08-11T14:57:17;41.90;37.30
65536;DHT22;52145;49.342;9.116;2022-08-11T14:59:46;41.80;37.70
65536;DHT22;52145;49.342;9.116;2022-08-11T15:02:13;42.40;37.40
65536;DHT22;52145;49.342;9.116;2022-08-11T15:04:59;42.60;37.00
65536;DHT22;52145;49.342;9.116;2022-08-11T15:07:27;43.40;37.10
65536;DHT22;52145;49.342;9.116;2022-08-11T15:09:57;44.00;36.50
65536;DHT22;52145;49.342;9.116;2022-08-11T15:12:23;43.30;36.10
65536;DHT22;52145;49.342;9.116;2022-08-11T15:14:49;42.60;37.10
65536;DHT22;52145;49.342;9.116;2022-08-11T15:17:35;42.10;36.60
65536;DHT22;52145;49.342;9.116;2022-08-11T15:20:08;41.90;37.30
65536;DHT22;52145;49.342;9.116;2022-08-11T15:22:53;42.10;37.40
65536;DHT22;52145;49.342;9.116;2022-08-11T15:25:38;42.20;37.30
65536;DHT22;52145;49.342;9.116;2022-08-11T15:28:06;42.20;37.10
65536;DHT22;52145;49.342;9.116;2022-08-11T15:30:54;43.40;37.10
65536;DHT22;52145;49.342;9.116;2022-08-11T15:33:42;43.70;37.20
65536;DHT22;52145;49.342;9.116;2022-08-11T15:36:29;44.10;36.50
65536;DHT22;52145;49.342;9.116;2022-08-11T15:42:06;43.70;37.00
65536;DHT22;52145;49.342;9.116;2022-08-11T15:44:59;42.90;36.80
65536;DHT22;52145;49.342;9.116;2022-08-11T15:47:51;42.80;36.40
65536;DHT22;52145;49.342;9.116;2022-08-11T15:50:23;40.70;37.40
65536;DHT22;52145;49.342;9.116;2022-08-11T15:53:32;40.50;38.00
65536;DHT22;52145;49.342;9.116;2022-08-11T15:55:50;41.50;37.50
65536;DHT22;52145;49.342;9.116;2022-08-11T15:58:17;41.90;37.30
65536;DHT22;52145;49.342;9.116;2022-08-11T16:01:04;42.30;37.00
65536;DHT22;52145;49.342;9.116;2022-08-11T16:03:51;42.80;37.10
65536;DHT22;52145;49.342;9.116;2022-08-11T16:06:50;43.30;36.30
65536;DHT22;52145;49.342;9.116;2022-08-11T16:09:25;42.30;36.60
65536;DHT22;52145;49.342;9.116;2022-08-11T16:11:53;41.70;36.50
65536;DHT22;52145;49.342;9.116;2022-08-11T16:14:22;41.40;37.00
65536;DHT22;52145;49.342;9.116;2022-08-11T16:17:10;41.20;37.00
65536;DHT22;52145;49.342;9.116;2022-08-11T16:19:39;40.80;37.50
65536;DHT22;52145;49.342;9.116;2022-08-11T16:22:08;40.70;37.30
65536;DHT22;52145;49.342;9.116;2022-08-11T16:24:38;41.00;37.20
65536;DHT22;52145;49.342;9.116;2022-08-11T16:27:05;41.20;37.10
65536;DHT22;52145;49.342;9.116;2022-08-11T16:29:35;41.60;37.10
65536;DHT22;52145;49.342;9.116;2022-08-11T16:32:03;41.30;37.10
65536;DHT22;52145;49.342;9.116;2022-08-11T16:34:50;41.60;37.20
65536;DHT22;52145;49.342;9.116;2022-08-11T16:37:36;39.60;37.80
65536;DHT22;52145;49.342;9.116;2022-08-11T16:40:21;39.10;38.30
65536;DHT22;52145;49.342;9.116;2022-08-11T16:42:49;39.50;38.60
65536;DHT22;52145;49.342;9.116;2022-08-11T16:45:35;39.90;37.90
65536;DHT22;52145;49.342;9.116;2022-08-11T16:48:21;40.20;37.80
65536;DHT22;52145;49.342;9.116;2022-08-11T16:50:47;40.20;37.80
65536;DHT22;52145;49.342;9.116;2022-08-11T16:53:13;39.70;37.90
65536;DHT22;52145;49.342;9.116;2022-08-11T16:55:42;40.30;37.60
65536;DHT22;52145;49.342;9.116;2022-08-11T16:58:10;40.10;37.70
65536;DHT22;52145;49.342;9.116;2022-08-11T17:00:55;40.00;38.10
65536;DHT22;52145;49.342;9.116;2022-08-11T17:03:23;39.50;38.10
65536;DHT22;52145;49.342;9.116;2022-08-11T17:06:09;38.80;38.50
65536;DHT22;52145;49.342;9.116;2022-08-11T17:08:54;38.50;38.80
65536;DHT22;52145;49.342;9.116;2022-08-11T17:11:59;38.30;38.70
65536;DHT22;52145;49.342;9.116;2022-08-11T17:14:48;38.30;38.80
65536;DHT22;52145;49.342;9.116;2022-08-11T17:20:12;37.50;38.90
65536;DHT22;52145;49.342;9.116;2022-08-11T17:22:40;36.40;39.30
65536;DHT22;52145;49.342;9.116;2022-08-11T17:25:26;35.50;40.30
65536;DHT22;52145;49.342;9.116;2022-08-11T17:27:58;34.60;41.00
65536;DHT22;52145;49.342;9.116;2022-08-11T17:30:25;33.60;41.40
65536;DHT22;52145;49.342;9.116;2022-08-11T17:33:12;33.10;42.20
65536;DHT22;52145;49.342;9.116;2022-08-11T17:35:58;32.80;42.40
65536;DHT22;52145;49.342;9.116;2022-08-11T17:38:24;32.20;42.40
65536;DHT22;52145;49.342;9.116;2022-08-11T17:40:54;32.00;42.70
65536;DHT22;52145;49.342;9.116;2022-08-11T17:43:39;31.60;42.80
65536;DHT22;52145;49.342;9.116;2022-08-11T17:46:24;31.30;43.10
65536;DHT22;52145;49.342;9.116;2022-08-11T17:49:10;31.20;43.20
65536;DHT22;52145;49.342;9.116;2022-08-11T17:51:38;31.10;44.40
65536;DHT22;52145;49.342;9.116;2022-08-11T17:54:25;30.80;44.10
65536;DHT22;52145;49.342;9.116;2022-08-11T17:57:10;30.60;43.60
65536;DHT22;52145;49.342;9.116;2022-08-11T17:59:56;30.40;44.10
65536;DHT22;52145;49.342;9.116;2022-08-11T18:02:37;30.30;44.20
65536;DHT22;52145;49.342;9.116;2022-08-11T18:05:29;30.20;44.00
65536;DHT22;52145;49.342;9.116;2022-08-11T18:08:02;30.20;49.30
65536;DHT22;52145;49.342;9.116;2022-08-11T18:10:48;30.50;44.70
65536;DHT22;52145;49.342;9.116;2022-08-11T18:13:35;30.10;44.60
65536;DHT22;52145;49.342;9.116;2022-08-11T18:16:20;29.80;45.30
65536;DHT22;52145;49.342;9.116;2022-08-11T18:19:05;29.50;45.10
65536;DHT22;52145;49.342;9.116;2022-08-11T18:21:50;29.40;45.60
65536;DHT22;52145;49.342;9.116;2022-08-11T18:24:38;29.10;46.50
65536;DHT22;52145;49.342;9.116;2022-08-11T18:27:30;29.00;45.30
65536;DHT22;52145;49.342;9.116;2022-08-11T18:30:16;28.70;48.10
65536;DHT22;52145;49.342;9.116;2022-08-11T18:33:02;29.10;48.70
65536;DHT22;52145;49.342;9.116;2022-08-11T18:35:53;28.60;48.20
65536;DHT22;52145;49.342;9.116;2022-08-11T18:38:42;27.80;48.60
65536;DHT22;52145;49.342;9.116;2022-08-11T18:41:31;27.40;48.20
65536;DHT22;52145;49.342;9.116;2022-08-11T18:44:19;27.20;49.60
65536;DHT22;52145;49.342;9.116;2022-08-11T18:47:08;26.90;49.50
65536;DHT22;52145;49.342;9.116;2022-08-11T18:49:53;26.70;50.10
65536;DHT22;52145;49.342;9.116;2022-08-11T18:52:41;26.60;49.70
65536;DHT22;52145;49.342;9.116;2022-08-11T18:55:27;26.40;50.30
65536;DHT22;52145;49.342;9.116;2022-08-11T18:58:14;26.40;51.10
65536;DHT22;52145;49.342;9.116;2022-08-11T19:01:00;26.20;50.30
65536;DHT22;52145;49.342;9.116;2022-08-11T19:03:48;26.10;50.90
65536;DHT22;52145;49.342;9.116;2022-08-11T19:06:33;26.00;51.20
65536;DHT22;52145;49.342;9.116;2022-08-11T19:09:19;25.80;51.40
65536;DHT22;52145;49.342;9.116;2022-08-11T19:12:05;25.60;52.00
65536;DHT22;52145;49.342;9.116;2022-08-11T19:14:52;25.40;52.40
65536;DHT22;52145;49.342;9.116;2022-08-11T19:17:39;25.20;52.60
65536;DHT22;52145;49.342;9.116;2022-08-11T19:20:27;25.10;52.70
65536;DHT22;52145;49.342;9.116;2022-08-11T19:23:16;24.90;53.40
65536;DHT22;52145;49.342;9.116;2022-08-11T19:26:02;24.70;54.00
65536;DHT22;52145;49.342;9.116;2022-08-11T19:28:48;24.70;54.00
65536;DHT22;52145;49.342;9.116;2022-08-11T19:31:34;24.60;54.10
65536;DHT22;52145;49.342;9.116;2022-08-11T19:34:20;24.50;54.30
65536;DHT22;52145;49.342;9.116;2022-08-11T19:37:07;24.30;54.60
65536;DHT22;52145;49.342;9.116;2022-08-11T19:39:53;24.20;54.80
65536;DHT22;52145;49.342;9.116;2022-08-11T19:42:38;24.10;55.10
65536;DHT22;52145;49.342;9.116;2022-08-11T19:45:22;23.90;55.20
65536;DHT22;52145;49.342;9.116;2022-08-11T19:48:08;23.90;55.30
65536;DHT22;52145;49.342;9.116;2022-08-11T19:50:53;23.90;55.40